sensor_id;sensor_type;location;lat;lon;timestamp;temperature;humidity
29341;DHT22;16337;59.536;13.468;2023-11-19T00:00:29;-6.70;99.90
29341;DHT22;16337;59.536;13.468;2023-11-19T00:02:55;-6.70;99.90
29341;DHT22;16337;59.536;13.468;2023-11-19T00:05:20;-6.70;99.90
29341;DHT22;16337;59.536;13.468;2023-11-19T00:07:46;-6.70;99.90
29341;DHT22;16337;59.536;13.468;2023-11-19T00:10:16;-6.70;99.90
29341;DHT22;16337;59.536;13.468;2023-11-19T00:12:45;-6.70;99.90
29341;DHT22;16337;59.536;13.468;2023-11-19T00:15:12;-6.70;99.90
29341;DHT22;16337;59.536;13.468;2023-11-19T00:17:39;-6.70;99.90
29341;DHT22;16337;59.536;13.468;2023-11-19T00:20:12;-6.70;99.90
29341;DHT22;16337;59.536;13.468;2023-11-19T00:22:38;-6.70;99.90
29341;DHT22;16337;59.536;13.468;2023-11-19T00:25:04;-6.70;99.90
29341;DHT22;16337;59.536;13.468;2023-11-19T00:27:31;-6.70;99.90
29341;DHT22;16337;59.536;13.468;2023-11-19T00:29:56;-6.60;99.90
29341;DHT22;16337;59.536;13.468;2023-11-19T00:32:22;-6.60;99.90
29341;DHT22;16337;59.536;13.468;2023-11-19T00:34:48;-6.60;99.90
29341;DHT22;16337;59.536;13.468;2023-11-19T00:37:14;-6.60;99.90
29341;DHT22;16337;59.536;13.468;2023-11-19T00:39:41;-6.50;99.90
29341;DHT22;16337;59.536;13.468;2023-11-19T00:42:07;-6.50;99.90
29341;DHT22;16337;59.536;13.468;2023-11-19T00:44:33;-6.50;99.90
29341;DHT22;16337;59.536;13.468;2023-11-19T00:46:59;-6.50;99.90
29341;DHT22;16337;59.536;13.468;2023-11-19T00:49:25;-6.50;99.90
29341;DHT22;16337;59.536;13.468;2023-11-19T00:51:51;-6.50;99.90
29341;DHT22;16337;59.536;13.468;2023-11-19T00:54:17;-6.40;99.90
29341;DHT22;16337;59.536;13.468;2023-11-19T00:56:42;-6.40;99.90
29341;DHT22;16337;59.536;13.468;2023-11-19T00:59:08;-6.40;99.90
29341;DHT22;16337;59.536;13.468;2023-11-19T01:01:34;-6.30;99.90
29341;DHT22;16337;59.536;13.468;2023-11-19T01:03:59;-6.40;99.90
29341;DHT22;16337;59.536;13.468;2023-11-19T01:06:29;-6.40;99.90
29341;DHT22;16337;59.536;13.468;2023-11-19T01:08:55;-6.30;99.90
29341;DHT22;16337;59.536;13.468;2023-11-19T01:11:23;-6.30;99.90
29341;DHT22;16337;59.536;13.468;2023-11-19T01:13:49;-6.30;99.90
29341;DHT22;16337;59.536;13.468;2023-11-19T01:16:15;-6.30;99.90
29341;DHT22;16337;59.536;13.468;2023-11-19T01:18:41;-6.40;99.90
29341;DHT22;16337;59.536;13.468;2023-11-19T01:21:07;-6.40;99.90
29341;DHT22;16337;59.536;13.468;2023-11-19T01:23:34;-6.40;99.90
29341;DHT22;16337;59.536;13.468;2023-11-19T01:25:59;-6.30;99.90
29341;DHT22;16337;59.536;13.468;2023-11-19T01:28:25;-6.30;99.90
29341;DHT22;16337;59.536;13.468;2023-11-19T01:30:51;-6.40;99.90
29341;DHT22;16337;59.536;13.468;2023-11-19T01:33:17;-6.40;99.90
29341;DHT22;16337;59.536;13.468;2023-11-19T01:35:42;-6.30;99.90
29341;DHT22;16337;59.536;13.468;2023-11-19T01:38:08;-6.30;99.90
29341;DHT22;16337;59.536;13.468;2023-11-19T01:40:34;-6.30;99.90
29341;DHT22;16337;59.536;13.468;2023-11-19T01:43:02;-6.30;99.90
29341;DHT22;16337;59.536;13.468;2023-11-19T01:45:29;-6.30;99.90
29341;DHT22;16337;59.536;13.468;2023-11-19T01:47:56;-6.30;99.90
29341;DHT22;16337;59.536;13.468;2023-11-19T01:50:23;-6.30;99.90
29341;DHT22;16337;59.536;13.468;2023-11-19T01:52:53;-6.20;99.90
29341;DHT22;16337;59.536;13.468;2023-11-19T01:55:20;-6.30;99.90
29341;DHT22;16337;59.536;13.468;2023-11-19T01:57:47;-6.30;99.90
29341;DHT22;16337;59.536;13.468;2023-11-19T02:00:15;-6.30;99.90
29341;DHT22;16337;59.536;13.468;2023-11-19T02:02:42;-6.30;99.90
29341;DHT22;16337;59.536;13.468;2023-11-19T02:05:10;-6.30;99.90
29341;DHT22;16337;59.536;13.468;2023-11-19T02:07:36;-6.20;99.90
29341;DHT22;16337;59.536;13.468;2023-11-19T02:10:02;-6.30;99.90
29341;DHT22;16337;59.536;13.468;2023-11-19T02:12:28;-6.20;99.90
29341;DHT22;16337;59.536;13.468;2023-11-19T02:14:54;-6.30;99.90
29341;DHT22;16337;59.536;13.468;2023-11-19T02:17:27;-6.20;99.90
29341;DHT22;16337;59.536;13.468;2023-11-19T02:19:53;-6.20;99.90
29341;DHT22;16337;59.536;13.468;2023-11-19T02:22:19;-6.20;99.90
29341;DHT22;16337;59.536;13.468;2023-11-19T02:24:47;-6.20;99.90
29341;DHT22;16337;59.536;13.468;2023-11-19T02:27:26;-6.20;99.90
29341;DHT22;16337;59.536;13.468;2023-11-19T02:29:56;-6.20;99.90
29341;DHT22;16337;59.536;13.468;2023-11-19T02:32:23;-6.20;99.90
29341;DHT22;16337;59.536;13.468;2023-11-19T02:34:49;-6.20;99.90
29341;DHT22;16337;59.536;13.468;2023-11-19T02:37:14;-6.20;99.90
29341;DHT22;16337;59.536;13.468;2023-11-19T02:39:40;-6.20;99.90
29341;DHT22;16337;59.536;13.468;2023-11-19T02:42:07;-6.20;99.90
29341;DHT22;16337;59.536;13.468;2023-11-19T02:44:33;-6.20;99.90
29341;DHT22;16337;59.536;13.468;2023-11-19T02:46:59;-6.20;99.90
29341;DHT22;16337;59.536;13.468;2023-11-19T02:49:25;-6.20;99.90
29341;DHT22;16337;59.536;13.468;2023-11-19T02:51:51;-6.20;99.90
29341;DHT22;16337;59.536;13.468;2023-11-19T02:54:17;-6.20;99.90
29341;DHT22;16337;59.536;13.468;2023-11-19T02:56:43;-6.20;99.90
29341;DHT22;16337;59.536;13.468;2023-11-19T02:59:09;-6.10;99.90
29341;DHT22;16337;59.536;13.468;2023-11-19T03:01:43;-6.10;99.90
29341;DHT22;16337;59.536;13.468;2023-11-19T03:04:15;-6.10;99.90
29341;DHT22;16337;59.536;13.468;2023-11-19T03:06:42;-6.10;99.90
29341;DHT22;16337;59.536;13.468;2023-11-19T03:09:08;-6.10;99.90
29341;DHT22;16337;59.536;13.468;2023-11-19T03:11:36;-6.00;99.90
29341;DHT22;16337;59.536;13.468;2023-11-19T03:14:02;-6.00;99.90
29341;DHT22;16337;59.536;13.468;2023-11-19T03:16:30;-6.00;99.90
29341;DHT22;16337;59.536;13.468;2023-11-19T03:18:56;-6.10;99.90
29341;DHT22;16337;59.536;13.468;2023-11-19T03:21:31;-6.10;99.90
29341;DHT22;16337;59.536;13.468;2023-11-19T03:23:58;-6.10;99.90
29341;DHT22;16337;59.536;13.468;2023-11-19T03:26:26;-6.10;99.90
29341;DHT22;16337;59.536;13.468;2023-11-19T03:28:53;-6.10;99.90
29341;DHT22;16337;59.536;13.468;2023-11-19T03:31:18;-6.10;99.90
29341;DHT22;16337;59.536;13.468;2023-11-19T03:33:45;-6.10;99.90
29341;DHT22;16337;59.536;13.468;2023-11-19T03:36:12;-6.10;99.90
29341;DHT22;16337;59.536;13.468;2023-11-19T03:38:38;-6.10;99.90
29341;DHT22;16337;59.536;13.468;2023-11-19T03:41:13;-6.00;99.90
29341;DHT22;16337;59.536;13.468;2023-11-19T03:43:40;-6.00;99.90
29341;DHT22;16337;59.536;13.468;2023-11-19T03:46:19;-6.10;99.90
29341;DHT22;16337;59.536;13.468;2023-11-19T03:48:46;-6.10;99.90
29341;DHT22;16337;59.536;13.468;2023-11-19T03:51:12;-6.10;99.90
29341;DHT22;16337;59.536;13.468;2023-11-19T03:53:47;-6.10;99.90
29341;DHT22;16337;59.536;13.468;2023-11-19T03:56:13;-6.10;99.90
29341;DHT22;16337;59.536;13.468;2023-11-19T03:58:39;-6.10;99.90
29341;DHT22;16337;59.536;13.468;2023-11-19T04:01:05;-6.10;99.90
29341;DHT22;16337;59.536;13.468;2023-11-19T04:03:31;-6.10;99.90
29341;DHT22;16337;59.536;13.468;2023-11-19T04:05:57;-6.10;99.90
29341;DHT22;16337;59.536;13.468;2023-11-19T04:08:23;-6.10;99.90
29341;DHT22;16337;59.536;13.468;2023-11-19T04:10:48;-6.10;99.90
29341;DHT22;16337;59.536;13.468;2023-11-19T04:13:14;-6.10;99.90
29341;DHT22;16337;59.536;13.468;2023-11-19T04:15:40;-6.10;99.90
29341;DHT22;16337;59.536;13.468;2023-11-19T04:18:05;-6.10;99.90
29341;DHT22;16337;59.536;13.468;2023-11-19T04:20:31;-6.20;99.90
29341;DHT22;16337;59.536;13.468;2023-11-19T04:22:57;-6.30;99.90
29341;DHT22;16337;59.536;13.468;2023-11-19T04:25:23;-6.20;99.90
29341;DHT22;16337;59.536;13.468;2023-11-19T04:27:51;-6.20;99.90
29341;DHT22;16337;59.536;13.468;2023-11-19T04:30:17;-6.10;99.90
29341;DHT22;16337;59.536;13.468;2023-11-19T04:32:44;-6.00;99.90
29341;DHT22;16337;59.536;13.468;2023-11-19T04:35:09;-6.00;99.90
29341;DHT22;16337;59.536;13.468;2023-11-19T04:37:36;-6.00;99.90
29341;DHT22;16337;59.536;13.468;2023-11-19T04:40:02;-6.00;99.90
29341;DHT22;16337;59.536;13.468;2023-11-19T04:42:28;-6.00;99.90
29341;DHT22;16337;59.536;13.468;2023-11-19T04:44:55;-6.00;99.90
29341;DHT22;16337;59.536;13.468;2023-11-19T04:47:20;-6.00;99.90
29341;DHT22;16337;59.536;13.468;2023-11-19T04:49:46;-6.00;99.90
29341;DHT22;16337;59.536;13.468;2023-11-19T04:52:12;-6.00;99.90
29341;DHT22;16337;59.536;13.468;2023-11-19T04:54:46;-5.90;99.90
29341;DHT22;16337;59.536;13.468;2023-11-19T04:57:13;-5.90;99.90
29341;DHT22;16337;59.536;13.468;2023-11-19T04:59:39;-5.90;99.90
29341;DHT22;16337;59.536;13.468;2023-11-19T05:02:05;-5.90;99.90
29341;DHT22;16337;59.536;13.468;2023-11-19T05:04:31;-5.90;99.90
29341;DHT22;16337;59.536;13.468;2023-11-19T05:06:57;-6.00;99.90
29341;DHT22;16337;59.536;13.468;2023-11-19T05:09:23;-6.00;99.90
29341;DHT22;16337;59.536;13.468;2023-11-19T05:11:48;-6.00;99.90
29341;DHT22;16337;59.536;13.468;2023-11-19T05:14:14;-6.10;99.90
29341;DHT22;16337;59.536;13.468;2023-11-19T05:16:40;-6.10;99.90
29341;DHT22;16337;59.536;13.468;2023-11-19T05:19:06;-6.10;99.90
29341;DHT22;16337;59.536;13.468;2023-11-19T05:21:32;-6.10;99.90
29341;DHT22;16337;59.536;13.468;2023-11-19T05:23:59;-6.20;99.90
29341;DHT22;16337;59.536;13.468;2023-11-19T05:26:24;-6.30;99.90
29341;DHT22;16337;59.536;13.468;2023-11-19T05:28:50;-6.40;99.90
29341;DHT22;16337;59.536;13.468;2023-11-19T05:31:17;-6.50;99.90
29341;DHT22;16337;59.536;13.468;2023-11-19T05:33:43;-6.50;99.90
29341;DHT22;16337;59.536;13.468;2023-11-19T05:36:11;-6.60;99.90
29341;DHT22;16337;59.536;13.468;2023-11-19T05:38:37;-6.60;99.90
29341;DHT22;16337;59.536;13.468;2023-11-19T05:41:03;-6.70;99.90
29341;DHT22;16337;59.536;13.468;2023-11-19T05:43:28;-6.70;99.90
29341;DHT22;16337;59.536;13.468;2023-11-19T05:45:54;-6.60;99.90
29341;DHT22;16337;59.536;13.468;2023-11-19T05:48:20;-6.60;99.90
29341;DHT22;16337;59.536;13.468;2023-11-19T05:50:45;-6.60;99.90
29341;DHT22;16337;59.536;13.468;2023-11-19T05:53:11;-6.50;99.90
29341;DHT22;16337;59.536;13.468;2023-11-19T05:55:40;-6.50;99.90
29341;DHT22;16337;59.536;13.468;2023-11-19T05:58:12;-6.40;99.90
29341;DHT22;16337;59.536;13.468;2023-11-19T06:00:38;-6.40;99.90
29341;DHT22;16337;59.536;13.468;2023-11-19T06:03:09;-6.40;99.90
29341;DHT22;16337;59.536;13.468;2023-11-19T06:05:34;-6.40;99.90
29341;DHT22;16337;59.536;13.468;2023-11-19T06:08:00;-6.40;99.90
29341;DHT22;16337;59.536;13.468;2023-11-19T06:10:26;-6.30;99.90
29341;DHT22;16337;59.536;13.468;2023-11-19T06:12:59;-6.30;99.90
29341;DHT22;16337;59.536;13.468;2023-11-19T06:15:28;-6.40;99.90
29341;DHT22;16337;59.536;13.468;2023-11-19T06:17:54;-6.40;99.90
29341;DHT22;16337;59.536;13.468;2023-11-19T06:20:20;-6.40;99.90
29341;DHT22;16337;59.536;13.468;2023-11-19T06:22:46;-6.40;99.90
29341;DHT22;16337;59.536;13.468;2023-11-19T06:25:12;-6.30;99.90
29341;DHT22;16337;59.536;13.468;2023-11-19T06:27:41;-6.30;99.90
29341;DHT22;16337;59.536;13.468;2023-11-19T06:30:07;-6.30;99.90
29341;DHT22;16337;59.536;13.468;2023-11-19T06:32:33;-6.30;99.90
29341;DHT22;16337;59.536;13.468;2023-11-19T06:34:58;-6.30;99.90
29341;DHT22;16337;59.536;13.468;2023-11-19T06:37:24;-6.30;99.90
29341;DHT22;16337;59.536;13.468;2023-11-19T06:39:49;-6.30;99.90
29341;DHT22;16337;59.536;13.468;2023-11-19T06:42:15;-6.30;99.90
29341;DHT22;16337;59.536;13.468;2023-11-19T06:44:41;-6.40;99.90
29341;DHT22;16337;59.536;13.468;2023-11-19T06:47:06;-6.30;99.90
29341;DHT22;16337;59.536;13.468;2023-11-19T06:49:32;-6.30;99.90
29341;DHT22;16337;59.536;13.468;2023-11-19T06:51:58;-6.40;99.90
29341;DHT22;16337;59.536;13.468;2023-11-19T06:54:24;-6.40;99.90
29341;DHT22;16337;59.536;13.468;2023-11-19T06:56:50;-6.40;99.90
29341;DHT22;16337;59.536;13.468;2023-11-19T06:59:15;-6.40;99.90
29341;DHT22;16337;59.536;13.468;2023-11-19T07:01:41;-6.40;99.90
29341;DHT22;16337;59.536;13.468;2023-11-19T07:04:11;-6.40;99.90
29341;DHT22;16337;59.536;13.468;2023-11-19T07:06:38;-6.40;99.90
29341;DHT22;16337;59.536;13.468;2023-11-19T07:09:05;-6.30;99.90
29341;DHT22;16337;59.536;13.468;2023-11-19T07:11:40;-6.30;99.90
29341;DHT22;16337;59.536;13.468;2023-11-19T07:14:07;-6.30;99.90
29341;DHT22;16337;59.536;13.468;2023-11-19T07:16:34;-6.30;99.90
29341;DHT22;16337;59.536;13.468;2023-11-19T07:19:06;-6.30;99.90
29341;DHT22;16337;59.536;13.468;2023-11-19T07:21:32;-6.30;99.90
29341;DHT22;16337;59.536;13.468;2023-11-19T07:23:58;-6.30;99.90
29341;DHT22;16337;59.536;13.468;2023-11-19T07:26:24;-6.30;99.90
29341;DHT22;16337;59.536;13.468;2023-11-19T07:28:50;-6.20;99.90
29341;DHT22;16337;59.536;13.468;2023-11-19T07:31:16;-6.30;99.90
29341;DHT22;16337;59.536;13.468;2023-11-19T07:33:45;-6.30;99.90
29341;DHT22;16337;59.536;13.468;2023-11-19T07:36:11;-6.20;99.90
29341;DHT22;16337;59.536;13.468;2023-11-19T07:38:37;-6.20;99.90
29341;DHT22;16337;59.536;13.468;2023-11-19T07:41:04;-6.20;99.90
29341;DHT22;16337;59.536;13.468;2023-11-19T07:43:30;-6.10;99.90
29341;DHT22;16337;59.536;13.468;2023-11-19T07:45:56;-6.20;99.90
29341;DHT22;16337;59.536;13.468;2023-11-19T07:48:24;-6.10;99.90
29341;DHT22;16337;59.536;13.468;2023-11-19T07:50:52;-6.10;99.90
29341;DHT22;16337;59.536;13.468;2023-11-19T07:53:19;-6.10;99.90
29341;DHT22;16337;59.536;13.468;2023-11-19T07:55:45;-6.10;99.90
29341;DHT22;16337;59.536;13.468;2023-11-19T07:58:11;-6.10;99.90
29341;DHT22;16337;59.536;13.468;2023-11-19T08:00:37;-6.10;99.90
29341;DHT22;16337;59.536;13.468;2023-11-19T08:03:03;-6.00;99.90
29341;DHT22;16337;59.536;13.468;2023-11-19T08:05:30;-6.00;99.90
29341;DHT22;16337;59.536;13.468;2023-11-19T08:07:56;-6.00;99.90
29341;DHT22;16337;59.536;13.468;2023-11-19T08:10:22;-6.00;99.90
29341;DHT22;16337;59.536;13.468;2023-11-19T08:12:48;-6.00;99.90
29341;DHT22;16337;59.536;13.468;2023-11-19T08:15:14;-5.90;99.90
29341;DHT22;16337;59.536;13.468;2023-11-19T08:17:41;-5.90;99.90
29341;DHT22;16337;59.536;13.468;2023-11-19T08:20:07;-5.90;99.90
29341;DHT22;16337;59.536;13.468;2023-11-19T08:22:36;-5.90;99.90
29341;DHT22;16337;59.536;13.468;2023-11-19T08:25:04;-5.90;99.90
29341;DHT22;16337;59.536;13.468;2023-11-19T08:27:30;-5.80;99.90
29341;DHT22;16337;59.536;13.468;2023-11-19T08:29:55;-5.90;99.90
29341;DHT22;16337;59.536;13.468;2023-11-19T08:32:23;-5.90;99.90
29341;DHT22;16337;59.536;13.468;2023-11-19T08:34:49;-5.90;99.90
29341;DHT22;16337;59.536;13.468;2023-11-19T08:37:15;-5.80;99.90
29341;DHT22;16337;59.536;13.468;2023-11-19T08:39:40;-5.80;99.90
29341;DHT22;16337;59.536;13.468;2023-11-19T08:42:07;-5.90;99.90
29341;DHT22;16337;59.536;13.468;2023-11-19T08:44:33;-5.80;99.90
29341;DHT22;16337;59.536;13.468;2023-11-19T08:46:59;-5.90;99.90
29341;DHT22;16337;59.536;13.468;2023-11-19T08:49:24;-5.80;99.90
29341;DHT22;16337;59.536;13.468;2023-11-19T08:51:51;-5.80;99.90
29341;DHT22;16337;59.536;13.468;2023-11-19T08:54:16;-5.80;99.90
29341;DHT22;16337;59.536;13.468;2023-11-19T08:56:42;-5.80;99.90
29341;DHT22;16337;59.536;13.468;2023-11-19T08:59:08;-5.70;99.90
29341;DHT22;16337;59.536;13.468;2023-11-19T09:01:34;-5.70;99.90
29341;DHT22;16337;59.536;13.468;2023-11-19T09:03:59;-5.70;99.90
29341;DHT22;16337;59.536;13.468;2023-11-19T09:06:25;-5.70;99.90
29341;DHT22;16337;59.536;13.468;2023-11-19T09:08:51;-5.60;99.90
29341;DHT22;16337;59.536;13.468;2023-11-19T09:11:17;-5.60;99.90
29341;DHT22;16337;59.536;13.468;2023-11-19T09:13:43;-5.70;99.90
29341;DHT22;16337;59.536;13.468;2023-11-19T09:16:12;-5.70;99.90
29341;DHT22;16337;59.536;13.468;2023-11-19T09:18:37;-5.70;99.90
29341;DHT22;16337;59.536;13.468;2023-11-19T09:21:03;-5.70;99.90
29341;DHT22;16337;59.536;13.468;2023-11-19T09:23:29;-5.70;99.90
29341;DHT22;16337;59.536;13.468;2023-11-19T09:25:58;-5.70;99.90
29341;DHT22;16337;59.536;13.468;2023-11-19T09:28:23;-5.60;99.90
29341;DHT22;16337;59.536;13.468;2023-11-19T09:30:49;-5.60;99.90
29341;DHT22;16337;59.536;13.468;2023-11-19T09:33:15;-5.60;99.90
29341;DHT22;16337;59.536;13.468;2023-11-19T09:35:40;-5.60;99.90
29341;DHT22;16337;59.536;13.468;2023-11-19T09:38:06;-5.70;99.90
29341;DHT22;16337;59.536;13.468;2023-11-19T09:40:32;-5.70;99.90
29341;DHT22;16337;59.536;13.468;2023-11-19T09:42:57;-5.70;99.90
29341;DHT22;16337;59.536;13.468;2023-11-19T09:45:27;-5.60;99.90
29341;DHT22;16337;59.536;13.468;2023-11-19T09:47:54;-5.60;99.90
29341;DHT22;16337;59.536;13.468;2023-11-19T09:50:22;-5.50;99.90
29341;DHT22;16337;59.536;13.468;2023-11-19T09:52:48;-5.50;99.90
29341;DHT22;16337;59.536;13.468;2023-11-19T09:55:14;-5.50;99.90
29341;DHT22;16337;59.536;13.468;2023-11-19T09:57:40;-5.40;99.90
29341;DHT22;16337;59.536;13.468;2023-11-19T10:00:07;-5.40;99.90
29341;DHT22;16337;59.536;13.468;2023-11-19T10:02:35;-5.30;99.90
29341;DHT22;16337;59.536;13.468;2023-11-19T10:05:06;-5.30;99.90
29341;DHT22;16337;59.536;13.468;2023-11-19T10:07:32;-5.30;99.90
29341;DHT22;16337;59.536;13.468;2023-11-19T10:10:02;-5.20;99.90
29341;DHT22;16337;59.536;13.468;2023-11-19T10:12:31;-5.20;99.90
29341;DHT22;16337;59.536;13.468;2023-11-19T10:14:57;-5.20;99.90
29341;DHT22;16337;59.536;13.468;2023-11-19T10:17:33;-5.20;99.90
29341;DHT22;16337;59.536;13.468;2023-11-19T10:19:59;-5.30;99.90
29341;DHT22;16337;59.536;13.468;2023-11-19T10:22:25;-5.40;99.90
29341;DHT22;16337;59.536;13.468;2023-11-19T10:24:52;-5.40;99.90
29341;DHT22;16337;59.536;13.468;2023-11-19T10:27:18;-5.30;99.90
29341;DHT22;16337;59.536;13.468;2023-11-19T10:29:47;-5.30;99.90
29341;DHT22;16337;59.536;13.468;2023-11-19T10:32:13;-5.30;99.90
29341;DHT22;16337;59.536;13.468;2023-11-19T10:34:42;-5.30;99.90
29341;DHT22;16337;59.536;13.468;2023-11-19T10:37:09;-5.30;99.90
29341;DHT22;16337;59.536;13.468;2023-11-19T10:39:52;-5.30;99.90
29341;DHT22;16337;59.536;13.468;2023-11-19T10:42:21;-5.30;99.90
29341;DHT22;16337;59.536;13.468;2023-11-19T10:44:46;-5.30;99.90
29341;DHT22;16337;59.536;13.468;2023-11-19T10:47:14;-5.30;99.90
29341;DHT22;16337;59.536;13.468;2023-11-19T10:49:39;-5.40;99.90
29341;DHT22;16337;59.536;13.468;2023-11-19T10:52:08;-5.40;99.90
29341;DHT22;16337;59.536;13.468;2023-11-19T10:54:34;-5.30;99.90
29341;DHT22;16337;59.536;13.468;2023-11-19T10:57:02;-5.20;99.90
29341;DHT22;16337;59.536;13.468;2023-11-19T10:59:30;-5.20;99.90
29341;DHT22;16337;59.536;13.468;2023-11-19T11:01:57;-5.20;99.90
29341;DHT22;16337;59.536;13.468;2023-11-19T11:04:24;-5.20;99.90
29341;DHT22;16337;59.536;13.468;2023-11-19T11:06:57;-5.30;99.90
29341;DHT22;16337;59.536;13.468;2023-11-19T11:09:26;-5.30;99.90
29341;DHT22;16337;59.536;13.468;2023-11-19T11:11:52;-5.40;99.90
29341;DHT22;16337;59.536;13.468;2023-11-19T11:14:21;-5.30;99.90
29341;DHT22;16337;59.536;13.468;2023-11-19T11:16:48;-5.30;99.90
29341;DHT22;16337;59.536;13.468;2023-11-19T11:19:18;-5.30;99.90
29341;DHT22;16337;59.536;13.468;2023-11-19T11:21:50;-5.20;99.90
29341;DHT22;16337;59.536;13.468;2023-11-19T11:24:42;-5.20;99.90
29341;DHT22;16337;59.536;13.468;2023-11-19T11:27:36;-5.10;99.90
29341;DHT22;16337;59.536;13.468;2023-11-19T11:30:27;-5.10;99.90
29341;DHT22;16337;59.536;13.468;2023-11-19T11:32:59;-5.10;99.90
29341;DHT22;16337;59.536;13.468;2023-11-19T11:38:06;-5.00;99.90
29341;DHT22;16337;59.536;13.468;2023-11-19T11:40:32;-5.00;99.90
29341;DHT22;16337;59.536;13.468;2023-11-19T11:42:58;-4.90;99.90
29341;DHT22;16337;59.536;13.468;2023-11-19T11:45:38;-5.00;99.90
29341;DHT22;16337;59.536;13.468;2023-11-19T11:48:15;-4.90;99.90
29341;DHT22;16337;59.536;13.468;2023-11-19T11:50:49;-4.90;99.90
29341;DHT22;16337;59.536;13.468;2023-11-19T11:53:20;-4.90;99.90
29341;DHT22;16337;59.536;13.468;2023-11-19T11:58:17;-4.90;99.90
29341;DHT22;16337;59.536;13.468;2023-11-19T12:00:42;-4.90;99.90
29341;DHT22;16337;59.536;13.468;2023-11-19T12:03:09;-5.00;99.90
29341;DHT22;16337;59.536;13.468;2023-11-19T12:05:44;-4.90;99.90
29341;DHT22;16337;59.536;13.468;2023-11-19T12:08:14;-5.00;99.90
29341;DHT22;16337;59.536;13.468;2023-11-19T12:10:47;-5.00;99.90
29341;DHT22;16337;59.536;13.468;2023-11-19T12:13:14;-5.00;99.90
29341;DHT22;16337;59.536;13.468;2023-11-19T12:18:27;-5.00;99.90
29341;DHT22;16337;59.536;13.468;2023-11-19T12:20:53;-5.00;99.90
29341;DHT22;16337;59.536;13.468;2023-11-19T12:23:19;-5.00;99.90
29341;DHT22;16337;59.536;13.468;2023-11-19T12:25:45;-5.00;99.90
29341;DHT22;16337;59.536;13.468;2023-11-19T12:28:15;-5.00;99.90
29341;DHT22;16337;59.536;13.468;2023-11-19T12:30:43;-4.90;99.90
29341;DHT22;16337;59.536;13.468;2023-11-19T12:33:12;-4.90;99.90
29341;DHT22;16337;59.536;13.468;2023-11-19T12:35:40;-4.90;99.90
29341;DHT22;16337;59.536;13.468;2023-11-19T12:38:05;-5.00;99.90
29341;DHT22;16337;59.536;13.468;2023-11-19T12:40:32;-5.00;99.90
29341;DHT22;16337;59.536;13.468;2023-11-19T12:42:57;-5.00;99.90
29341;DHT22;16337;59.536;13.468;2023-11-19T12:45:24;-5.00;99.90
29341;DHT22;16337;59.536;13.468;2023-11-19T12:48:07;-5.00;99.90
29341;DHT22;16337;59.536;13.468;2023-11-19T12:53:21;-5.00;99.90
29341;DHT22;16337;59.536;13.468;2023-11-19T12:55:47;-5.00;99.90
29341;DHT22;16337;59.536;13.468;2023-11-19T12:58:32;-4.90;99.90
29341;DHT22;16337;59.536;13.468;2023-11-19T13:01:07;-4.90;99.90
29341;DHT22;16337;59.536;13.468;2023-11-19T13:03:34;-4.90;99.90
29341;DHT22;16337;59.536;13.468;2023-11-19T13:06:05;-4.90;99.90
29341;DHT22;16337;59.536;13.468;2023-11-19T13:08:39;-4.90;99.90
29341;DHT22;16337;59.536;13.468;2023-11-19T13:11:06;-5.00;99.90
29341;DHT22;16337;59.536;13.468;2023-11-19T13:13:53;-5.00;99.90
29341;DHT22;16337;59.536;13.468;2023-11-19T13:16:18;-5.00;99.90
29341;DHT22;16337;59.536;13.468;2023-11-19T13:18:44;-5.00;99.90
29341;DHT22;16337;59.536;13.468;2023-11-19T13:21:10;-5.00;99.90
29341;DHT22;16337;59.536;13.468;2023-11-19T13:23:36;-4.90;99.90
29341;DHT22;16337;59.536;13.468;2023-11-19T13:26:01;-5.00;99.90
29341;DHT22;16337;59.536;13.468;2023-11-19T13:28:29;-5.00;99.90
29341;DHT22;16337;59.536;13.468;2023-11-19T13:30:54;-5.00;99.90
29341;DHT22;16337;59.536;13.468;2023-11-19T13:33:20;-5.00;99.90
29341;DHT22;16337;59.536;13.468;2023-11-19T13:35:46;-5.00;99.90
29341;DHT22;16337;59.536;13.468;2023-11-19T13:38:12;-5.00;99.90
29341;DHT22;16337;59.536;13.468;2023-11-19T13:40:37;-5.00;99.90
29341;DHT22;16337;59.536;13.468;2023-11-19T13:43:04;-5.00;99.90
29341;DHT22;16337;59.536;13.468;2023-11-19T13:45:30;-5.10;99.90
29341;DHT22;16337;59.536;13.468;2023-11-19T13:47:56;-5.10;99.90
29341;DHT22;16337;59.536;13.468;2023-11-19T13:50:21;-5.10;99.90
29341;DHT22;16337;59.536;13.468;2023-11-19T13:52:48;-5.10;99.90
29341;DHT22;16337;59.536;13.468;2023-11-19T13:55:15;-5.10;99.90
29341;DHT22;16337;59.536;13.468;2023-11-19T13:57:42;-5.10;99.90
29341;DHT22;16337;59.536;13.468;2023-11-19T14:00:09;-5.10;99.90
29341;DHT22;16337;59.536;13.468;2023-11-19T14:02:41;-5.10;99.90
29341;DHT22;16337;59.536;13.468;2023-11-19T14:05:08;-5.10;99.90
29341;DHT22;16337;59.536;13.468;2023-11-19T14:07:34;-5.10;99.90
29341;DHT22;16337;59.536;13.468;2023-11-19T14:09:59;-5.10;99.90
29341;DHT22;16337;59.536;13.468;2023-11-19T14:12:25;-5.10;99.90
29341;DHT22;16337;59.536;13.468;2023-11-19T14:14:51;-5.10;99.90
29341;DHT22;16337;59.536;13.468;2023-11-19T14:17:17;-5.10;99.90
29341;DHT22;16337;59.536;13.468;2023-11-19T14:19:44;-5.10;99.90
29341;DHT22;16337;59.536;13.468;2023-11-19T14:22:10;-5.00;99.90
29341;DHT22;16337;59.536;13.468;2023-11-19T14:24:35;-5.00;99.90
29341;DHT22;16337;59.536;13.468;2023-11-19T14:27:01;-5.00;99.90
29341;DHT22;16337;59.536;13.468;2023-11-19T14:29:27;-5.00;99.90
29341;DHT22;16337;59.536;13.468;2023-11-19T14:31:56;-5.00;99.90
29341;DHT22;16337;59.536;13.468;2023-11-19T14:34:22;-5.00;99.90
29341;DHT22;16337;59.536;13.468;2023-11-19T14:36:48;-5.00;99.90
29341;DHT22;16337;59.536;13.468;2023-11-19T14:39:14;-5.00;99.90
29341;DHT22;16337;59.536;13.468;2023-11-19T14:41:40;-5.00;99.90
29341;DHT22;16337;59.536;13.468;2023-11-19T14:44:05;-5.00;99.90
29341;DHT22;16337;59.536;13.468;2023-11-19T14:46:31;-5.00;99.90
29341;DHT22;16337;59.536;13.468;2023-11-19T14:48:57;-5.10;99.90
29341;DHT22;16337;59.536;13.468;2023-11-19T14:51:23;-5.10;99.90
29341;DHT22;16337;59.536;13.468;2023-11-19T14:53:48;-5.10;99.90
29341;DHT22;16337;59.536;13.468;2023-11-19T14:56:14;-5.10;99.90
29341;DHT22;16337;59.536;13.468;2023-11-19T14:58:40;-5.20;99.90
29341;DHT22;16337;59.536;13.468;2023-11-19T15:01:06;-5.20;99.90
29341;DHT22;16337;59.536;13.468;2023-11-19T15:03:33;-5.20;99.90
29341;DHT22;16337;59.536;13.468;2023-11-19T15:05:59;-5.20;99.90
29341;DHT22;16337;59.536;13.468;2023-11-19T15:08:25;-5.10;99.90
29341;DHT22;16337;59.536;13.468;2023-11-19T15:10:50;-5.10;99.90
29341;DHT22;16337;59.536;13.468;2023-11-19T15:13:16;-5.10;99.90
29341;DHT22;16337;59.536;13.468;2023-11-19T15:15:42;-5.10;99.90
29341;DHT22;16337;59.536;13.468;2023-11-19T15:18:07;-5.00;99.90
29341;DHT22;16337;59.536;13.468;2023-11-19T15:20:35;-5.00;99.90
29341;DHT22;16337;59.536;13.468;2023-11-19T15:23:02;-4.90;99.90
29341;DHT22;16337;59.536;13.468;2023-11-19T15:25:27;-4.90;99.90